createdAt,value
2023-04-27T00:01:49.999Z,101489.34
2023-04-27T00:04:16.783Z,101480.88
2023-04-27T00:06:43.355Z,101483.72
2023-04-27T00:09:09.809Z,101488.59
2023-04-27T00:11:36.258Z,101479.34
2023-04-27T00:14:03.206Z,101483.16
2023-04-27T00:16:29.646Z,101472.97
2023-04-27T00:18:56.019Z,101490.75
2023-04-27T00:21:22.475Z,101494.19
2023-04-27T00:23:48.964Z,101491.13
2023-04-27T00:26:15.364Z,101486.72
2023-04-27T00:28:41.780Z,101488.63
2023-04-27T00:31:08.190Z,101485.06
2023-04-27T00:33:34.611Z,101493.00
2023-04-27T00:36:01.810Z,101490.13
2023-04-27T00:38:29.214Z,101492.44
2023-04-27T00:41:06.864Z,101498.53
2023-04-27T00:43:41.757Z,101491.41
2023-04-27T00:46:08.281Z,101498.03
2023-04-27T00:48:35.549Z,101499.63
2023-04-27T00:51:01.948Z,101493.56
2023-04-27T00:53:28.465Z,101492.16
2023-04-27T00:55:56.341Z,101485.16
2023-04-27T00:58:23.037Z,101490.47
2023-04-27T01:00:49.746Z,101490.47
2023-04-27T01:03:16.484Z,101492.16
2023-04-27T01:05:43.354Z,101498.56
2023-04-27T01:08:10.450Z,101488.47
2023-04-27T01:10:39.987Z,101492.84
2023-04-27T01:13:06.486Z,101488.91
2023-04-27T01:15:32.857Z,101487.66
2023-04-27T01:18:00.427Z,101484.56
2023-04-27T01:20:30.220Z,101490.25
2023-04-27T01:22:57.442Z,101486.13
2023-04-27T01:25:24.156Z,101485.63
2023-04-27T01:27:50.811Z,101491.34
2023-04-27T01:30:17.479Z,101487.44
2023-04-27T01:32:43.867Z,101497.16
2023-04-27T01:35:10.328Z,101488.66
2023-04-27T01:37:37.170Z,101491.97
2023-04-27T01:40:06.371Z,101492.06
2023-04-27T01:42:32.772Z,101492.69
2023-04-27T01:45:00.487Z,101492.69
2023-04-27T01:47:27.750Z,101496.13
2023-04-27T01:49:54.198Z,101501.06
2023-04-27T01:52:20.578Z,101499.09
2023-04-27T01:54:46.922Z,101508.09
2023-04-27T01:57:14.338Z,101511.88
2023-04-27T01:59:40.841Z,101511.75
2023-04-27T02:02:07.313Z,101512.22
2023-04-27T02:04:33.926Z,101519.22
2023-04-27T02:07:00.419Z,101518.38
2023-04-27T02:09:26.754Z,101520.84
2023-04-27T02:11:53.105Z,101514.22
2023-04-27T02:14:19.490Z,101513.50
2023-04-27T02:16:45.878Z,101516.47
2023-04-27T02:19:12.545Z,101519.09
2023-04-27T02:21:40.488Z,101514.00
2023-04-27T02:24:07.131Z,101502.53
2023-04-27T02:26:33.524Z,101508.19
2023-04-27T02:28:59.940Z,101508.91
2023-04-27T02:31:27.011Z,101508.44
2023-04-27T02:33:53.505Z,101503.81
2023-04-27T02:36:19.899Z,101502.47
2023-04-27T02:38:46.426Z,101512.16
2023-04-27T02:41:12.826Z,101507.06
2023-04-27T02:43:39.258Z,101508.22
2023-04-27T02:46:06.085Z,101502.09
2023-04-27T02:48:33.301Z,101509.88
2023-04-27T02:50:59.730Z,101507.06
2023-04-27T02:53:26.200Z,101500.69
2023-04-27T02:55:52.589Z,101503.06
2023-04-27T02:58:19.872Z,101500.66
2023-04-27T03:00:47.596Z,101494.47
2023-04-27T03:03:15.164Z,101486.38
2023-04-27T03:05:41.620Z,101477.66
2023-04-27T03:08:08.020Z,101477.28
2023-04-27T03:10:34.485Z,101484.38
2023-04-27T03:13:01.047Z,101472.03
2023-04-27T03:15:27.410Z,101479.00
2023-04-27T03:17:53.753Z,101475.75
2023-04-27T03:20:22.091Z,101479.09
2023-04-27T03:22:48.466Z,101475.28
2023-04-27T03:25:15.077Z,101474.69
2023-04-27T03:27:43.258Z,101476.91
2023-04-27T03:30:10.772Z,101478.56
2023-04-27T03:32:37.185Z,101478.56
2023-04-27T03:35:04.211Z,101481.03
2023-04-27T03:37:30.617Z,101490.13
2023-04-27T03:39:57.006Z,101487.66
2023-04-27T03:42:23.406Z,101487.94
2023-04-27T03:44:49.772Z,101481.03
2023-04-27T03:47:16.248Z,101487.09
2023-04-27T03:49:42.651Z,101488.63
2023-04-27T03:52:09.002Z,101479.13
2023-04-27T03:54:35.351Z,101490.41
2023-04-27T03:57:02.603Z,101489.44
2023-04-27T03:59:30.214Z,101495.34
2023-04-27T04:01:59.553Z,101502.25
2023-04-27T04:04:27.736Z,101497.97
2023-04-27T04:06:54.288Z,101503.44
2023-04-27T04:09:22.705Z,101507.28
2023-04-27T04:11:52.051Z,101509.88
2023-04-27T04:14:18.423Z,101510.22
2023-04-27T04:16:47.547Z,101504.66
2023-04-27T04:19:14.168Z,101513.56
2023-04-27T04:21:40.709Z,101512.91
2023-04-27T04:24:07.392Z,101514.59
2023-04-27T04:26:33.764Z,101517.44
2023-04-27T04:29:00.155Z,101517.00
2023-04-27T04:31:27.532Z,101513.88
2023-04-27T04:33:53.968Z,101517.91
2023-04-27T04:36:20.414Z,101513.06
2023-04-27T04:38:47.133Z,101512.59
2023-04-27T04:41:13.619Z,101518.66
2023-04-27T04:43:39.969Z,101519.25
2023-04-27T04:46:06.514Z,101521.97
2023-04-27T04:48:33.056Z,101515.41
2023-04-27T04:50:59.466Z,101524.06
2023-04-27T04:53:26.207Z,101525.84
2023-04-27T04:55:52.637Z,101528.66
2023-04-27T04:58:19.043Z,101526.50
2023-04-27T05:00:45.389Z,101523.75
2023-04-27T05:03:11.977Z,101522.16
2023-04-27T05:05:38.446Z,101517.50
2023-04-27T05:08:04.937Z,101525.78
2023-04-27T05:10:31.389Z,101533.09
2023-04-27T05:12:57.857Z,101528.31
2023-04-27T05:15:24.221Z,101528.56
2023-04-27T05:17:50.739Z,101531.50
2023-04-27T05:20:17.249Z,101537.72
2023-04-27T05:22:43.660Z,101545.16
2023-04-27T05:25:10.109Z,101543.00
2023-04-27T05:27:36.511Z,101543.00
2023-04-27T05:30:03.341Z,101543.06
2023-04-27T05:32:29.821Z,101542.53
2023-04-27T05:34:56.232Z,101543.06
2023-04-27T05:37:22.681Z,101544.47
2023-04-27T05:39:49.156Z,101549.75
2023-04-27T05:42:15.526Z,101548.94
2023-04-27T05:44:42.024Z,101547.31
2023-04-27T05:47:08.427Z,101554.38
2023-04-27T05:49:34.804Z,101555.25
2023-04-27T05:52:01.786Z,101550.44
2023-04-27T05:54:28.292Z,101551.81
2023-04-27T05:56:54.644Z,101551.28
2023-04-27T05:59:21.779Z,101552.09
2023-04-27T06:01:48.213Z,101555.69
2023-04-27T06:04:14.724Z,101566.31
2023-04-27T06:06:41.685Z,101563.41
2023-04-27T06:09:08.258Z,101566.59
2023-04-27T06:11:34.735Z,101560.50
2023-04-27T06:14:01.150Z,101568.91
2023-04-27T06:16:27.859Z,101561.75
2023-04-27T06:18:54.356Z,101566.28
2023-04-27T06:21:21.223Z,101564.06
2023-04-27T06:23:48.176Z,101571.66
2023-04-27T06:26:14.499Z,101565.16
2023-04-27T06:28:41.287Z,101560.56
2023-04-27T06:31:07.870Z,101565.38
2023-04-27T06:33:34.408Z,101556.25
2023-04-27T06:36:02.229Z,101552.94
2023-04-27T06:38:28.909Z,101554.41
2023-04-27T06:40:55.442Z,101564.97
2023-04-27T06:43:22.216Z,101563.16
2023-04-27T06:45:48.634Z,101562.78
2023-04-27T06:48:15.187Z,101568.16
2023-04-27T06:50:41.655Z,101565.59
2023-04-27T06:53:08.285Z,101561.28
2023-04-27T06:55:34.999Z,101559.72
2023-04-27T06:58:02.223Z,101554.59
2023-04-27T07:00:29.080Z,101559.88
2023-04-27T07:02:55.788Z,101560.50
2023-04-27T07:05:22.545Z,101555.50
2023-04-27T07:07:49.091Z,101562.09
2023-04-27T07:10:15.787Z,101561.31
2023-04-27T07:12:43.024Z,101558.66
2023-04-27T07:15:10.161Z,101564.69
2023-04-27T07:17:36.706Z,101556.81
2023-04-27T07:20:06.998Z,101558.88
2023-04-27T07:22:33.765Z,101560.22
2023-04-27T07:25:00.338Z,101552.59
2023-04-27T07:27:27.411Z,101558.91
2023-04-27T07:29:53.757Z,101557.03
2023-04-27T07:32:21.287Z,101557.50
2023-04-27T07:34:53.392Z,101551.13
2023-04-27T07:37:20.933Z,101554.72
2023-04-27T07:39:49.131Z,101555.09
2023-04-27T07:42:15.926Z,101562.66
2023-04-27T07:44:42.550Z,101561.50
2023-04-27T07:47:11.713Z,101554.25
2023-04-27T07:49:38.184Z,101558.66
2023-04-27T07:52:04.897Z,101564.56
2023-04-27T07:54:31.477Z,101563.88
2023-04-27T07:56:57.941Z,101556.56
2023-04-27T07:59:24.413Z,101563.78
2023-04-27T08:01:51.212Z,101561.50
2023-04-27T08:04:18.082Z,101562.94
2023-04-27T08:06:46.298Z,101551.50
2023-04-27T08:09:14.026Z,101556.94
2023-04-27T08:11:40.758Z,101551.66
2023-04-27T08:14:13.230Z,101551.47
2023-04-27T08:16:41.565Z,101552.00
2023-04-27T08:19:09.679Z,101544.72
2023-04-27T08:21:36.897Z,101547.19
2023-04-27T08:24:04.436Z,101542.13
2023-04-27T08:26:30.834Z,101540.59
2023-04-27T08:28:57.508Z,101541.63
2023-04-27T08:31:24.708Z,101536.44
2023-04-27T08:33:52.265Z,101539.38
2023-04-27T08:36:24.376Z,101525.97
2023-04-27T08:38:51.831Z,101526.97
2023-04-27T08:41:23.174Z,101520.19
2023-04-27T08:43:53.421Z,101538.63
2023-04-27T08:46:21.261Z,101533.09
2023-04-27T08:48:51.201Z,101526.84
2023-04-27T08:51:18.072Z,101531.25
2023-04-27T08:53:55.058Z,101527.59
2023-04-27T08:56:24.949Z,101529.59
2023-04-27T08:58:52.046Z,101518.66
2023-04-27T09:01:19.034Z,101530.69
2023-04-27T09:03:46.899Z,101529.50
2023-04-27T09:06:14.473Z,101523.97
2023-04-27T09:08:48.671Z,101516.88
2023-04-27T09:11:17.127Z,101524.00
2023-04-27T09:13:45.396Z,101526.25
2023-04-27T09:16:15.208Z,101515.72
2023-04-27T09:18:43.865Z,101517.06
2023-04-27T09:21:10.592Z,101511.50
2023-04-27T09:23:38.330Z,101515.22
2023-04-27T09:26:08.342Z,101515.66
2023-04-27T09:28:39.430Z,101507.00
2023-04-27T09:31:08.891Z,101512.09
2023-04-27T09:33:36.083Z,101509.53
2023-04-27T09:36:05.709Z,101509.56
2023-04-27T09:38:33.193Z,101501.44
2023-04-27T09:41:00.301Z,101504.91
2023-04-27T09:43:28.696Z,101505.94
2023-04-27T09:45:55.917Z,101503.66
2023-04-27T09:48:23.464Z,101512.66
2023-04-27T09:50:51.889Z,101504.50
2023-04-27T09:53:23.210Z,101507.34
2023-04-27T09:55:55.984Z,101502.31
2023-04-27T09:58:47.436Z,101504.00
2023-04-27T10:01:16.821Z,101494.66
2023-04-27T10:04:16.964Z,101491.22
2023-04-27T10:09:23.779Z,101492.81
2023-04-27T10:11:52.279Z,101489.47
2023-04-27T10:14:20.463Z,101483.22
2023-04-27T10:16:52.235Z,101481.41
2023-04-27T10:19:19.172Z,101471.53
2023-04-27T10:22:05.411Z,101480.47
2023-04-27T10:24:40.929Z,101473.41
2023-04-27T10:27:11.264Z,101470.59
2023-04-27T10:29:46.720Z,101454.19
2023-04-27T10:32:19.511Z,101459.38
2023-04-27T10:34:47.594Z,101455.78
2023-04-27T10:37:15.087Z,101460.19
2023-04-27T10:39:47.924Z,101461.44
2023-04-27T10:42:28.416Z,101462.06
2023-04-27T10:44:57.789Z,101458.53
2023-04-27T10:47:24.795Z,101446.09
2023-04-27T10:49:54.506Z,101450.00
2023-04-27T10:52:20.991Z,101446.13
2023-04-27T10:54:47.507Z,101455.53
2023-04-27T10:57:14.060Z,101453.94
2023-04-27T10:59:55.371Z,101450.22
2023-04-27T11:02:27.087Z,101455.97
2023-04-27T11:04:54.520Z,101448.19
2023-04-27T11:07:28.121Z,101444.31
2023-04-27T11:09:55.498Z,101449.13
2023-04-27T11:12:22.034Z,101455.94
2023-04-27T11:14:48.499Z,101447.75
2023-04-27T11:17:14.875Z,101455.53
2023-04-27T11:19:47.855Z,101445.44
2023-04-27T11:22:17.894Z,101442.06
2023-04-27T11:24:49.534Z,101437.56
2023-04-27T11:27:16.566Z,101432.59
2023-04-27T11:29:43.012Z,101435.06
2023-04-27T11:32:19.797Z,101424.47
2023-04-27T11:34:54.749Z,101431.19
2023-04-27T11:37:24.678Z,101424.88
2023-04-27T11:39:51.691Z,101424.22
2023-04-27T11:42:19.357Z,101432.53
2023-04-27T11:44:59.251Z,101426.84
2023-04-27T11:47:28.011Z,101416.25
2023-04-27T11:49:59.737Z,101408.63
2023-04-27T11:52:30.152Z,101407.09
2023-04-27T11:54:56.649Z,101404.66
2023-04-27T11:57:27.345Z,101412.72
2023-04-27T11:59:54.407Z,101402.75
2023-04-27T12:02:23.837Z,101400.16
2023-04-27T12:04:50.914Z,101412.03
2023-04-27T12:07:17.750Z,101401.78
2023-04-27T12:09:44.636Z,101399.72
2023-04-27T12:12:12.986Z,101398.50
2023-04-27T12:14:39.897Z,101391.81
2023-04-27T12:17:06.515Z,101399.06
2023-04-27T12:19:33.108Z,101385.19
2023-04-27T12:21:59.495Z,101386.41
2023-04-27T12:24:25.910Z,101380.09
2023-04-27T12:26:52.266Z,101382.69
2023-04-27T12:29:18.668Z,101378.38
2023-04-27T12:31:45.175Z,101370.41
2023-04-27T12:34:11.895Z,101371.16
2023-04-27T12:36:38.591Z,101366.91
2023-04-27T12:39:17.475Z,101370.72
2023-04-27T12:41:46.326Z,101364.16
2023-04-27T12:44:13.703Z,101375.56
2023-04-27T12:46:41.058Z,101369.38
2023-04-27T12:49:08.510Z,101370.47
2023-04-27T12:51:36.024Z,101368.22
2023-04-27T12:54:07.350Z,101376.59
2023-04-27T12:56:34.249Z,101370.78
2023-04-27T12:59:00.792Z,101370.72
2023-04-27T13:01:28.082Z,101363.47
2023-04-27T13:04:05.660Z,101358.00
2023-04-27T13:06:32.324Z,101360.16
2023-04-27T13:08:59.684Z,101361.19
2023-04-27T13:11:26.856Z,101362.53
2023-04-27T13:13:54.794Z,101355.66
2023-04-27T13:16:22.564Z,101355.84
2023-04-27T13:18:51.923Z,101356.34
2023-04-27T13:21:18.657Z,101353.63
2023-04-27T13:23:45.101Z,101364.66
2023-04-27T13:26:11.702Z,101365.47
2023-04-27T13:28:38.188Z,101354.91
2023-04-27T13:31:05.418Z,101341.38
2023-04-27T13:33:33.193Z,101342.56
2023-04-27T13:36:02.267Z,101343.19
2023-04-27T13:38:28.993Z,101345.88
2023-04-27T13:40:55.400Z,101340.50
2023-04-27T13:43:21.937Z,101334.88
2023-04-27T13:45:49.802Z,101330.75
2023-04-27T13:48:16.187Z,101328.66
2023-04-27T13:50:42.600Z,101325.31
2023-04-27T13:53:08.981Z,101335.81
2023-04-27T13:55:36.453Z,101337.94
2023-04-27T13:58:02.824Z,101339.41
2023-04-27T14:00:33.313Z,101328.22
2023-04-27T14:03:01.244Z,101329.31
2023-04-27T14:05:27.794Z,101322.69
2023-04-27T14:07:54.182Z,101317.44
2023-04-27T14:10:20.669Z,101315.78
2023-04-27T14:12:47.138Z,101309.56
2023-04-27T14:15:13.522Z,101307.09
2023-04-27T14:17:40.398Z,101306.97
2023-04-27T14:20:07.829Z,101304.41
2023-04-27T14:22:35.245Z,101303.22
2023-04-27T14:25:01.975Z,101309.19
2023-04-27T14:27:28.397Z,101312.84
2023-04-27T14:29:54.906Z,101301.41
2023-04-27T14:32:21.534Z,101291.00
2023-04-27T14:34:48.095Z,101293.03
2023-04-27T14:37:14.588Z,101291.84
2023-04-27T14:39:42.287Z,101292.47
2023-04-27T14:42:10.103Z,101292.31
2023-04-27T14:44:36.657Z,101281.72
2023-04-27T14:47:03.133Z,101271.22
2023-04-27T14:49:29.659Z,101265.50
2023-04-27T14:51:56.256Z,101265.13
2023-04-27T14:54:22.714Z,101268.34
2023-04-27T14:56:49.136Z,101258.50
2023-04-27T14:59:16.027Z,101252.59
2023-04-27T15:01:42.768Z,101254.38
2023-04-27T15:04:11.283Z,101250.13
2023-04-27T15:06:37.801Z,101245.22
2023-04-27T15:09:04.681Z,101244.44
2023-04-27T15:11:31.198Z,101257.94
2023-04-27T15:13:57.608Z,101254.25
2023-04-27T15:16:24.780Z,101255.09
2023-04-27T15:18:51.519Z,101256.34
2023-04-27T15:21:17.857Z,101262.56
2023-04-27T15:23:44.259Z,101245.38
2023-04-27T15:26:10.627Z,101254.38
2023-04-27T15:28:37.428Z,101242.50
2023-04-27T15:31:03.813Z,101240.09
2023-04-27T15:33:30.553Z,101233.91
2023-04-27T15:35:58.873Z,101227.53
2023-04-27T15:38:26.094Z,101227.78
2023-04-27T15:40:52.488Z,101223.31
2023-04-27T15:43:18.961Z,101215.13
2023-04-27T15:45:45.608Z,101220.06
2023-04-27T15:48:12.236Z,101219.03
2023-04-27T15:50:38.697Z,101229.66
2023-04-27T15:53:05.021Z,101222.75
2023-04-27T15:55:31.515Z,101221.09
2023-04-27T15:57:57.978Z,101227.44
2023-04-27T16:00:24.705Z,101220.91
2023-04-27T16:02:51.270Z,101217.66
2023-04-27T16:05:17.914Z,101215.59
2023-04-27T16:07:45.211Z,101215.41
2023-04-27T16:10:12.381Z,101216.19
2023-04-27T16:12:38.920Z,101212.34
2023-04-27T16:15:06.901Z,101204.56
2023-04-27T16:17:38.336Z,101195.78
2023-04-27T16:20:09.564Z,101196.16
2023-04-27T16:22:36.863Z,101188.81
2023-04-27T16:25:06.454Z,101185.53
2023-04-27T16:27:32.876Z,101182.06
2023-04-27T16:29:59.235Z,101185.75
2023-04-27T16:32:26.618Z,101171.66
2023-04-27T16:34:53.065Z,101183.28
2023-04-27T16:37:19.437Z,101169.81
2023-04-27T16:39:46.076Z,101180.84
2023-04-27T16:42:20.092Z,101168.19
2023-04-27T16:44:47.099Z,101172.88
2023-04-27T16:47:13.462Z,101174.91
2023-04-27T16:49:41.616Z,101170.03
2023-04-27T16:52:08.019Z,101163.88
2023-04-27T16:54:34.400Z,101159.16
2023-04-27T16:57:01.582Z,101154.69
2023-04-27T16:59:27.997Z,101155.47
2023-04-27T17:01:54.491Z,101157.31
2023-04-27T17:04:21.025Z,101154.88
2023-04-27T17:06:48.332Z,101147.50
2023-04-27T17:09:15.196Z,101150.13
2023-04-27T17:11:42.163Z,101150.34
2023-04-27T17:14:08.563Z,101150.53
2023-04-27T17:16:35.004Z,101146.03
2023-04-27T17:19:01.529Z,101153.28
2023-04-27T17:21:27.986Z,101154.22
2023-04-27T17:23:54.445Z,101141.78
2023-04-27T17:26:21.525Z,101144.41
2023-04-27T17:28:48.922Z,101138.88
2023-04-27T17:31:17.475Z,101130.75
2023-04-27T17:33:45.321Z,101130.69
2023-04-27T17:36:12.449Z,101128.22
2023-04-27T17:38:38.858Z,101124.13
2023-04-27T17:41:05.426Z,101124.25
2023-04-27T17:43:31.811Z,101120.97
2023-04-27T17:45:58.275Z,101121.16
2023-04-27T17:48:24.729Z,101132.09
2023-04-27T17:50:51.243Z,101131.00
2023-04-27T17:53:17.603Z,101114.09
2023-04-27T17:55:45.451Z,101121.19
2023-04-27T17:58:12.084Z,101116.41
2023-04-27T18:00:39.061Z,101121.22
2023-04-27T18:03:05.734Z,101105.78
2023-04-27T18:05:32.323Z,101111.19
2023-04-27T18:07:58.755Z,101110.13
2023-04-27T18:10:25.110Z,101110.31
2023-04-27T18:12:51.514Z,101111.31
2023-04-27T18:15:17.978Z,101112.06
2023-04-27T18:17:45.174Z,101110.47
2023-04-27T18:20:12.071Z,101120.63
2023-04-27T18:22:39.989Z,101107.84
2023-04-27T18:25:08.070Z,101107.09
2023-04-27T18:27:37.179Z,101105.91
2023-04-27T18:30:08.506Z,101101.75
2023-04-27T18:32:35.373Z,101103.78
2023-04-27T18:35:02.612Z,101102.97
2023-04-27T18:37:29.106Z,101101.53
2023-04-27T18:39:55.665Z,101100.44
2023-04-27T18:42:23.361Z,101100.44
2023-04-27T18:44:54.525Z,101100.00
2023-04-27T18:47:20.974Z,101100.75
2023-04-27T18:49:47.428Z,101099.50
2023-04-27T18:52:13.837Z,101090.25
2023-04-27T18:54:40.307Z,101089.44
2023-04-27T18:57:06.806Z,101088.59
2023-04-27T18:59:33.316Z,101096.47
2023-04-27T19:02:00.022Z,101086.53
2023-04-27T19:04:26.775Z,101084.00
2023-04-27T19:06:53.282Z,101091.47
2023-04-27T19:09:19.673Z,101085.38
2023-04-27T19:11:49.389Z,101089.84
2023-04-27T19:14:19.729Z,101095.50
2023-04-27T19:16:46.469Z,101099.72
2023-04-27T19:19:13.331Z,101094.63
2023-04-27T19:21:41.789Z,101094.34
2023-04-27T19:24:08.290Z,101097.81
2023-04-27T19:26:34.892Z,101099.97
2023-04-27T19:29:01.896Z,101101.56
2023-04-27T19:31:28.433Z,101102.38
2023-04-27T19:33:55.694Z,101105.81
2023-04-27T19:36:30.159Z,101109.41
2023-04-27T19:38:56.513Z,101099.47
2023-04-27T19:41:23.675Z,101098.00
2023-04-27T19:43:50.244Z,101091.47
2023-04-27T19:46:16.795Z,101085.34
2023-04-27T19:48:43.217Z,101092.19
2023-04-27T19:51:10.341Z,101099.66
2023-04-27T19:53:37.737Z,101103.22
2023-04-27T19:56:05.065Z,101105.25
2023-04-27T19:58:31.552Z,101100.47
2023-04-27T20:00:57.926Z,101102.09
2023-04-27T20:03:24.578Z,101098.38
2023-04-27T20:05:51.549Z,101096.00
2023-04-27T20:08:18.051Z,101083.25
2023-04-27T20:10:44.486Z,101087.72
2023-04-27T20:13:11.136Z,101079.34
2023-04-27T20:15:37.638Z,101078.88
2023-04-27T20:18:04.122Z,101073.59
2023-04-27T20:20:30.526Z,101071.63
2023-04-27T20:22:56.843Z,101069.16
2023-04-27T20:25:23.324Z,101075.25
2023-04-27T20:27:49.704Z,101078.78
2023-04-27T20:30:16.222Z,101071.06
2023-04-27T20:32:42.692Z,101069.88
2023-04-27T20:35:12.017Z,101062.16
2023-04-27T20:37:40.091Z,101063.44
2023-04-27T20:40:07.852Z,101059.31
2023-04-27T20:42:34.538Z,101065.16
2023-04-27T20:45:00.951Z,101051.97
2023-04-27T20:47:27.463Z,101054.16
2023-04-27T20:49:53.881Z,101051.69
2023-04-27T20:52:23.294Z,101050.34
2023-04-27T20:54:49.655Z,101047.84
2023-04-27T20:57:16.329Z,101050.69
2023-04-27T20:59:42.805Z,101046.97
2023-04-27T21:02:09.199Z,101046.41
2023-04-27T21:04:35.902Z,101038.50
2023-04-27T21:07:02.327Z,101033.22
2023-04-27T21:09:28.780Z,101033.94
2023-04-27T21:11:55.334Z,101030.69
2023-04-27T21:14:21.734Z,101011.22
2023-04-27T21:16:48.195Z,101005.31
2023-04-27T21:19:16.442Z,101004.50
2023-04-27T21:21:42.990Z,101000.03
2023-04-27T21:24:09.402Z,100992.13
2023-04-27T21:26:35.800Z,100980.94
2023-04-27T21:29:05.242Z,100980.66
2023-04-27T21:31:32.713Z,100973.75
2023-04-27T21:33:59.171Z,100975.75
2023-04-27T21:36:25.631Z,100967.03
2023-04-27T21:38:51.964Z,100972.13
2023-04-27T21:41:18.351Z,100969.00
2023-04-27T21:43:45.021Z,100965.19
2023-04-27T21:46:11.535Z,100960.56
2023-04-27T21:48:37.912Z,100954.84
2023-04-27T21:51:04.380Z,100949.38
2023-04-27T21:53:30.747Z,100945.34
2023-04-27T21:55:57.230Z,100945.03
2023-04-27T21:58:24.201Z,100938.75
2023-04-27T22:00:50.856Z,100937.13
2023-04-27T22:03:17.737Z,100933.84
2023-04-27T22:05:45.164Z,100931.56
2023-04-27T22:08:12.092Z,100926.56
2023-04-27T22:10:38.525Z,100921.09
2023-04-27T22:13:17.570Z,100916.19
2023-04-27T22:15:45.787Z,100917.63
2023-04-27T22:18:14.285Z,100909.50
2023-04-27T22:20:41.504Z,100918.19
2023-04-27T22:23:09.188Z,100909.09
2023-04-27T22:25:35.783Z,100919.66
2023-04-27T22:28:02.154Z,100904.38
2023-04-27T22:30:29.103Z,100908.78
2023-04-27T22:32:56.644Z,100910.03
2023-04-27T22:35:27.236Z,100890.75
2023-04-27T22:37:58.885Z,100889.56
2023-04-27T22:40:25.892Z,100885.13
2023-04-27T22:42:53.666Z,100886.13
2023-04-27T22:45:20.079Z,100890.31
2023-04-27T22:47:46.752Z,100895.84
2023-04-27T22:50:13.475Z,100885.75
2023-04-27T22:52:43.966Z,100884.13
2023-04-27T22:55:11.988Z,100884.03
2023-04-27T22:57:39.407Z,100886.59
2023-04-27T23:00:08.826Z,100885.88
2023-04-27T23:02:35.345Z,100880.84
2023-04-27T23:05:01.812Z,100887.31
2023-04-27T23:07:28.461Z,100879.00
2023-04-27T23:09:54.884Z,100877.94
2023-04-27T23:12:21.953Z,100876.47
2023-04-27T23:14:48.389Z,100885.91
2023-04-27T23:17:17.605Z,100883.81
2023-04-27T23:19:44.004Z,100880.25
2023-04-27T23:22:10.432Z,100881.25
2023-04-27T23:24:36.758Z,100875.91
2023-04-27T23:27:03.807Z,100870.28
2023-04-27T23:29:30.661Z,100868.59
2023-04-27T23:32:02.694Z,100866.84
2023-04-27T23:34:29.175Z,100862.63
2023-04-27T23:36:55.708Z,100857.09
2023-04-27T23:39:22.026Z,100855.75
2023-04-27T23:41:48.450Z,100850.09
2023-04-27T23:44:15.077Z,100850.28
2023-04-27T23:46:41.733Z,100841.75
2023-04-27T23:49:08.102Z,100844.81
2023-04-27T23:51:34.520Z,100838.56
2023-04-27T23:54:00.884Z,100842.56
2023-04-27T23:56:27.224Z,100841.75
2023-04-27T23:58:53.893Z,100842.19
